Time;durP1;ratioP1;P1;durP2;ratioP2;P2;SDS_P1;SDS_P2;PMS_P1;PMS_P2;Temp;Humidity;BMP_temperature;BMP_pressure;BME280_temperature;BME280_humidity;BME280_pressure;Samples;Min_cycle;Max_cycle;Signal;HPM_P1;HPM_P2
2021/11/17 02:25:57;;;;;;;7.50;3.58;;;;;;;3.81;100.00;101660.59;6218491;28;20062;-72
2021/11/17 02:29:14;;;;;;;11.98;3.78;;;;;;;3.83;100.00;101655.34;6254570;28;20048;-71
2021/11/17 02:32:30;;;;;;;12.18;3.33;;;;;;;3.77;100.00;101648.50;6299701;28;20044;-72
2021/11/17 02:35:47;;;;;;;10.00;3.92;;;;;;;3.85;100.00;101644.94;6299961;28;20053;-72
2021/11/17 02:39:03;;;;;;;10.93;3.63;;;;;;;3.81;100.00;101641.50;6300061;28;20396;-72
2021/11/17 02:42:20;;;;;;;15.85;5.18;;;;;;;3.83;100.00;101639.75;6299555;28;20055;-72
2021/11/17 02:45:42;;;;;;;11.00;5.00;;;;;;;3.81;100.00;101631.97;6308732;28;20039;-71
2021/11/17 02:49:00;;;;;;;8.48;3.35;;;;;;;3.84;100.00;101630.22;6324875;28;20059;-72
2021/11/17 02:52:18;;;;;;;9.20;3.60;;;;;;;3.83;100.00;101631.09;6324722;28;20094;-72
2021/11/17 02:55:38;;;;;;;10.85;3.30;;;;;;;3.80;100.00;101626.78;6324948;28;20051;-72
2021/11/17 02:59:00;;;;;;;8.02;2.40;;;;;;;3.78;100.00;101623.34;6324772;28;20089;-72
2021/11/17 03:02:25;;;;;;;9.95;3.10;;;;;;;3.80;100.00;101619.84;6324352;28;20059;-71
2021/11/17 03:05:41;;;;;;;10.25;2.97;;;;;;;3.80;100.00;101614.63;6324469;28;20048;-72
2021/11/17 03:09:06;;;;;;;8.63;3.03;;;;;;;3.77;100.00;101606.00;6324513;28;20047;-72
2021/11/17 03:12:20;;;;;;;15.30;4.22;;;;;;;3.81;100.00;101605.97;6323989;28;20051;-72
2021/11/17 03:15:45;;;;;;;11.70;4.20;;;;;;;3.85;100.00;101598.97;6323856;28;20047;-71
2021/11/17 03:19:00;;;;;;;10.52;3.22;;;;;;;3.86;100.00;101592.94;6324039;28;20055;-72
2021/11/17 03:22:21;;;;;;;15.50;2.85;;;;;;;3.87;100.00;101594.63;6323867;28;20077;-72
2021/11/17 03:25:39;;;;;;;15.55;5.53;;;;;;;3.87;100.00;101606.78;6323988;28;20064;-71
2021/11/17 03:29:03;;;;;;;9.80;3.40;;;;;;;3.88;100.00;101592.91;6323850;28;20054;-71
2021/11/17 03:32:32;;;;;;;9.15;2.97;;;;;;;3.87;100.00;101593.78;6306286;28;20047;-72
2021/11/17 03:35:53;;;;;;;19.20;4.32;;;;;;;3.87;100.00;101594.63;6323865;28;20055;-72
2021/11/17 03:39:13;;;;;;;9.60;4.03;;;;;;;3.87;100.00;101578.19;6322880;28;20062;-72
2021/11/17 03:42:35;;;;;;;7.95;3.25;;;;;;;3.90;100.00;101581.59;6323495;28;20491;-71
2021/11/17 03:45:54;;;;;;;9.82;3.28;;;;;;;3.90;100.00;101581.59;6323284;28;20047;-72
2021/11/17 03:49:19;;;;;;;13.40;3.78;;;;;;;3.92;100.00;101595.44;6323415;28;20052;-72
2021/11/17 03:52:44;;;;;;;8.63;2.38;;;;;;;3.93;100.00;101584.16;6322948;28;20048;-72
2021/11/17 03:56:20;;;;;;;10.60;3.47;;;;;;;3.94;100.00;101588.47;6322556;28;20635;-72
2021/11/17 03:59:41;;;;;;;10.93;3.78;;;;;;;3.94;100.00;101587.63;6318833;28;20050;-72
2021/11/17 04:03:08;;;;;;;7.07;3.95;;;;;;;3.94;100.00;101592.81;6323034;28;20052;-72
2021/11/17 04:06:22;;;;;;;7.55;3.67;;;;;;;3.97;100.00;101590.19;6322536;28;20048;-72
2021/11/17 04:09:36;;;;;;;8.75;2.88;;;;;;;3.93;100.00;101591.97;6323140;28;20506;-72
2021/11/17 04:12:51;;;;;;;12.27;4.20;;;;;;;3.94;100.00;101592.81;6322914;28;20055;-72
2021/11/17 04:16:06;;;;;;;7.15;2.58;;;;;;;3.94;100.00;101585.88;6322768;28;20407;-72
2021/11/17 04:19:19;;;;;;;6.72;2.92;;;;;;;3.92;100.00;101597.19;6322204;28;20056;-72
2021/11/17 04:22:37;;;;;;;6.68;2.33;;;;;;;3.93;100.00;101598.91;6322129;28;20044;-72
2021/11/17 04:25:56;;;;;;;7.47;2.83;;;;;;;3.94;100.00;101592.81;6322813;28;20055;-72
2021/11/17 04:29:18;;;;;;;7.82;3.20;;;;;;;3.95;100.00;101592.81;6322610;28;20513;-72
2021/11/17 04:32:50;;;;;;;6.95;2.45;;;;;;;3.98;100.00;101603.16;6322042;28;20059;-72
2021/11/17 04:36:14;;;;;;;10.45;2.90;;;;;;;3.98;100.00;101600.56;6322561;28;20059;-72
2021/11/17 04:39:44;;;;;;;5.78;2.97;;;;;;;3.95;100.00;101607.53;6322547;28;20052;-72
2021/11/17 04:42:51;;;;;;;;;;;;;;;3.94;100.00;101606.66;6320580;28;20453;-72
2021/11/17 04:46:07;;;;;;;6.47;2.97;;;;;;;3.91;100.00;101613.69;6320273;28;19920;-71
2021/11/17 04:49:33;;;;;;;6.53;3.10;;;;;;;3.91;100.00;101616.28;6318377;28;20047;-71
2021/11/17 04:52:57;;;;;;;10.95;3.47;;;;;;;3.91;100.00;101617.13;6318156;28;20052;-71
2021/11/17 04:56:11;;;;;;;8.45;2.83;;;;;;;3.90;100.00;101606.72;6321950;28;20142;-72
2021/11/17 04:59:37;;;;;;;6.47;2.72;;;;;;;3.94;100.00;101611.88;6322204;28;20055;-71
2021/11/17 05:02:54;;;;;;;9.65;3.42;;;;;;;3.92;100.00;101607.59;6321220;28;20495;-71
2021/11/17 05:06:12;;;;;;;8.27;2.60;;;;;;;3.93;100.00;101598.91;6321810;28;20056;-72
2021/11/17 05:09:24;;;;;;;9.48;3.58;;;;;;;3.95;100.00;101595.41;6321748;28;20048;-71
2021/11/17 05:12:38;;;;;;;7.00;2.58;;;;;;;3.91;100.00;101588.53;6321542;28;20051;-72
2021/11/17 05:15:51;;;;;;;4.15;2.55;;;;;;;3.91;100.00;101595.47;6321637;28;20575;-70
2021/11/17 05:19:02;;;;;;;9.95;3.00;;;;;;;3.93;100.00;101597.16;6321492;28;20406;-71
2021/11/17 05:22:16;;;;;;;10.20;4.70;;;;;;;3.95;100.00;101590.22;6321489;28;20048;-71
2021/11/17 05:25:32;;;;;;;12.60;3.53;;;;;;;3.94;100.00;101588.47;6321465;28;20055;-71
2021/11/17 05:29:09;;;;;;;7.60;4.05;;;;;;;3.95;100.00;101587.63;6321822;28;20518;-72
2021/11/17 05:32:35;;;;;;;12.50;4.43;;;;;;;3.92;100.00;101597.19;6286923;28;20051;-71
2021/11/17 05:35:59;;;;;;;12.02;3.78;;;;;;;3.93;100.00;101594.56;6321272;28;20549;-71
2021/11/17 05:39:18;;;;;;;8.65;3.97;;;;;;;3.93;100.00;101602.34;6321449;28;20048;-71
2021/11/17 05:42:32;;;;;;;15.07;4.20;;;;;;;3.95;100.00;101602.31;6320878;28;20051;-72
2021/11/17 05:45:46;;;;;;;13.20;3.65;;;;;;;3.93;100.00;101610.16;6321075;28;20044;-71
2021/11/17 05:48:58;;;;;;;11.50;4.38;;;;;;;3.91;100.00;101604.13;6296265;28;20412;-71
2021/11/17 05:52:17;;;;;;;9.00;2.97;;;;;;;3.95;100.00;101602.31;6303462;28;20494;-71
2021/11/17 05:55:34;;;;;;;10.10;3.63;;;;;;;4.01;100.00;101612.69;6320374;28;20048;-71
2021/11/17 05:58:54;;;;;;;10.15;3.15;;;;;;;3.94;100.00;101611.00;6320397;28;20434;-71
2021/11/17 06:02:11;;;;;;;7.60;3.15;;;;;;;3.91;100.00;101604.13;6321891;28;20703;-72
2021/11/17 06:05:12;;;;;;;8.88;3.63;;;;;;;3.90;100.00;101599.78;6326150;28;20091;-72
2021/11/17 06:08:13;;;;;;;7.65;3.22;;;;;;;3.95;100.00;101589.31;6322626;28;20067;-72
2021/11/17 06:11:17;;;;;;;10.18;3.25;;;;;;;3.93;100.00;101583.31;6317283;28;20479;-71
2021/11/17 06:14:21;;;;;;;10.80;3.90;;;;;;;3.92;100.00;101592.84;6317174;28;20442;-71
2021/11/17 06:17:25;;;;;;;6.32;3.00;;;;;;;3.95;100.00;101602.31;6317804;28;20040;-71
2021/11/17 06:20:27;;;;;;;10.48;2.97;;;;;;;3.95;100.00;101604.94;6322393;28;20048;-72
2021/11/17 06:23:34;;;;;;;13.88;4.13;;;;;;;3.94;100.00;101598.00;6322420;28;20048;-71
2021/11/17 06:26:39;;;;;;;7.85;3.15;;;;;;;3.99;100.00;101604.88;6317264;28;20516;-71
2021/11/17 06:29:45;;;;;;;14.07;4.20;;;;;;;4.04;100.00;101599.63;6319433;28;20052;-71
2021/11/17 06:32:47;;;;;;;11.70;3.40;;;;;;;4.05;100.00;101593.56;6318073;28;20044;-72
2021/11/17 06:35:49;;;;;;;10.93;3.15;;;;;;;4.07;100.00;101595.25;6316387;28;20052;-72
2021/11/17 06:38:50;;;;;;;11.68;3.00;;;;;;;4.05;100.00;101586.59;6328956;28;20048;-71
2021/11/17 06:41:54;;;;;;;9.63;3.25;;;;;;;4.06;100.00;101592.66;6327463;28;20050;-71
2021/11/17 06:44:56;;;;;;;8.10;3.38;;;;;;;4.08;100.00;101589.16;6323671;28;20048;-71
2021/11/17 06:47:57;;;;;;;9.52;3.72;;;;;;;4.11;100.00;101588.25;6322995;28;20521;-71
2021/11/17 06:51:00;;;;;;;10.52;3.75;;;;;;;4.15;100.00;101581.28;6322836;28;20040;-71
2021/11/17 06:54:01;;;;;;;7.80;2.92;;;;;;;4.15;100.00;101578.69;6321249;28;21642;-71
2021/11/17 06:57:05;;;;;;;6.75;3.40;;;;;;;4.16;100.00;101572.59;6322890;28;20040;-71
2021/11/17 07:00:09;;;;;;;10.10;3.50;;;;;;;4.20;100.00;101538.72;6324448;28;20048;-71
2021/11/17 07:03:11;;;;;;;4.85;3.08;;;;;;;4.18;100.00;101516.19;6323964;28;20040;-71
2021/11/17 07:06:12;;;;;;;8.25;3.17;;;;;;;4.17;100.00;101523.13;6324804;28;20047;-71
2021/11/17 07:09:14;;;;;;;8.60;2.88;;;;;;;4.04;100.00;101526.78;6325276;28;20487;-71
2021/11/17 07:12:16;;;;;;;8.35;2.80;;;;;;;4.08;100.00;101542.34;6324746;28;20043;-72
2021/11/17 07:15:18;;;;;;;9.73;3.45;;;;;;;4.11;100.00;101546.66;6323652;28;20525;-71
2021/11/17 07:18:20;;;;;;;9.27;3.50;;;;;;;4.16;100.00;101550.03;6323886;28;20051;-71
2021/11/17 07:21:21;;;;;;;8.63;3.75;;;;;;;4.17;100.00;101564.75;6322172;28;20040;-71
2021/11/17 07:24:24;;;;;;;7.40;3.90;;;;;;;4.19;100.00;101576.03;6323090;28;20047;-71
2021/11/17 07:27:27;;;;;;;10.45;3.83;;;;;;;4.21;100.00;101579.44;6323698;28;20048;-71
2021/11/17 07:30:33;;;;;;;10.25;4.18;;;;;;;4.23;100.00;101584.66;6322839;28;20054;-71
2021/11/17 07:33:34;;;;;;;7.90;3.55;;;;;;;4.30;100.00;101587.13;6323463;28;20040;-71
2021/11/17 07:36:36;;;;;;;12.55;3.22;;;;;;;4.30;100.00;101586.28;6323263;28;20396;-71
2021/11/17 07:39:37;;;;;;;10.43;3.00;;;;;;;4.33;100.00;101591.44;6323567;28;20078;-70
2021/11/17 07:42:41;;;;;;;8.80;3.45;;;;;;;4.35;100.00;101594.88;6323188;28;20134;-70
2021/11/17 07:45:44;;;;;;;14.32;3.90;;;;;;;4.39;100.00;101599.16;6322800;28;20047;-70
2021/11/17 07:48:45;;;;;;;10.13;4.15;;;;;;;4.47;100.00;101599.91;6321813;28;20055;-70
2021/11/17 07:51:47;;;;;;;13.13;4.07;;;;;;;4.50;100.00;101599.03;6322040;28;20040;-70
2021/11/17 07:54:48;;;;;;;10.88;4.28;;;;;;;4.53;100.00;101588.53;6323069;28;20051;-71
2021/11/17 07:57:55;;;;;;;11.07;4.03;;;;;;;4.55;100.00;101589.41;6322868;28;20498;-70
2021/11/17 08:00:58;;;;;;;11.45;3.53;;;;;;;4.61;100.00;101591.03;6323086;28;20055;-70
2021/11/17 08:03:59;;;;;;;15.23;4.30;;;;;;;4.67;100.00;101593.53;6322786;28;20047;-70
2021/11/17 08:07:01;;;;;;;15.77;3.50;;;;;;;4.62;100.00;101592.75;6323103;28;20048;-70
2021/11/17 08:10:07;;;;;;;9.18;3.80;;;;;;;4.61;100.00;101598.84;6321826;28;20418;-70
2021/11/17 08:13:10;;;;;;;9.70;3.95;;;;;;;4.62;100.00;101592.75;6322065;28;20044;-70
2021/11/17 08:16:13;;;;;;;7.13;3.63;;;;;;;4.61;100.00;101576.28;6322070;28;20407;-69
2021/11/17 08:19:15;;;;;;;11.20;3.20;;;;;;;4.69;100.00;101584.84;6322817;28;20048;-70
2021/11/17 08:22:16;;;;;;;7.70;3.90;;;;;;;4.73;100.00;101578.69;6320901;28;20040;-70
2021/11/17 08:25:20;;;;;;;12.05;4.65;;;;;;;4.73;100.00;101580.44;6321944;28;20044;-70
2021/11/17 08:28:23;;;;;;;10.77;3.25;;;;;;;4.77;100.00;101584.72;6320199;28;20457;-71
2021/11/17 08:31:25;;;;;;;12.48;4.10;;;;;;;4.81;100.00;101586.38;6325178;28;20046;-70
2021/11/17 08:34:27;;;;;;;10.90;4.45;;;;;;;4.79;100.00;101586.41;6320646;28;20491;-71
2021/11/17 08:37:31;;;;;;;12.65;3.58;;;;;;;4.82;100.00;101593.31;6320052;28;20040;-72
2021/11/17 08:40:35;;;;;;;12.10;4.03;;;;;;;4.79;100.00;101601.16;6319284;28;20430;-71
2021/11/17 08:43:39;;;;;;;9.40;3.50;;;;;;;4.76;100.00;101596.84;6320236;28;20044;-70
2021/11/17 08:46:41;;;;;;;13.20;3.83;;;;;;;4.81;100.00;101582.03;6321951;28;20071;-71
2021/11/17 08:49:42;;;;;;;10.27;4.03;;;;;;;4.85;100.00;101567.22;6322418;28;20040;-71
2021/11/17 08:52:44;;;;;;;13.13;3.83;;;;;;;4.89;100.00;101573.22;6320925;28;20043;-71
2021/11/17 08:55:46;;;;;;;11.73;4.88;;;;;;;4.89;100.00;101581.03;6319741;28;20040;-70
2021/11/17 08:58:49;;;;;;;9.95;4.05;;;;;;;4.89;100.00;101581.91;6325228;28;20499;-71
2021/11/17 09:01:50;;;;;;;12.35;4.13;;;;;;;4.88;100.00;101580.19;6321022;28;20759;-72
2021/11/17 09:04:52;;;;;;;12.00;4.05;;;;;;;4.97;100.00;101580.03;6320464;28;20058;-71
2021/11/17 09:07:53;;;;;;;16.50;5.05;;;;;;;4.91;100.00;101592.31;6318335;28;20048;-71
2021/11/17 09:10:57;;;;;;;10.00;4.53;;;;;;;4.88;100.00;101588.00;6317699;28;20044;-70
2021/11/17 09:14:00;;;;;;;12.60;4.40;;;;;;;4.89;100.00;101588.84;6316708;28;20036;-71
2021/11/17 09:17:02;;;;;;;9.38;3.47;;;;;;;4.92;100.00;101581.00;6320492;28;20048;-70
2021/11/17 09:20:04;;;;;;;14.68;6.20;;;;;;;4.99;100.00;101585.22;6320978;28;20146;-71
2021/11/17 09:23:07;;;;;;;11.40;5.10;;;;;;;5.09;100.00;101579.84;6320407;28;20044;-71
2021/11/17 09:26:09;;;;;;;20.23;6.20;;;;;;;5.13;100.00;101579.75;6320068;28;20048;-70
2021/11/17 09:29:13;;;;;;;20.48;5.93;;;;;;;5.10;100.00;101567.66;6317918;28;20055;-71
2021/11/17 09:32:14;;;;;;;15.52;5.72;;;;;;;5.13;100.00;101578.00;6323524;28;20037;-71
2021/11/17 09:35:16;;;;;;;16.25;5.35;;;;;;;5.16;100.00;101577.13;6320808;28;20048;-71
2021/11/17 09:38:18;;;;;;;15.63;5.32;;;;;;;5.15;100.00;101578.00;6328149;28;20055;-71
2021/11/17 09:41:24;;;;;;;14.05;5.82;;;;;;;5.18;100.00;101575.31;6319214;28;20054;-71
2021/11/17 09:44:29;;;;;;;17.75;6.40;;;;;;;5.21;100.00;101576.13;6323453;28;20446;-71
2021/11/17 09:47:34;;;;;;;19.42;6.55;;;;;;;5.26;100.00;101578.66;6325809;28;20119;-71
2021/11/17 09:50:38;;;;;;;15.45;5.53;;;;;;;5.34;100.00;101579.38;6321228;28;20100;-71
2021/11/17 09:53:47;;;;;;;15.68;6.22;;;;;;;5.36;100.00;101575.03;6325431;28;20138;-71
2021/11/17 09:56:51;;;;;;;19.30;7.18;;;;;;;5.43;100.00;101576.63;6323849;28;20047;-71
2021/11/17 10:00:01;;;;;;;23.95;7.35;;;;;;;5.52;100.00;101583.41;6320440;28;20418;-71
2021/11/17 10:03:08;;;;;;;21.08;6.43;;;;;;;5.61;100.00;101580.63;6323814;28;20138;-71
2021/11/17 10:13:31;;;;;;;22.15;7.45;;;;;;;5.51;100.00;101597.34;6322763;28;20039;-72
2021/11/17 10:16:34;;;;;;;19.63;5.45;;;;;;;5.43;100.00;101592.25;6330995;28;20091;-72
2021/11/17 10:19:36;;;;;;;20.35;6.68;;;;;;;5.40;100.00;101583.63;6340504;28;20503;-70
2021/11/17 10:22:38;;;;;;;20.52;7.10;;;;;;;5.32;100.00;101584.63;6325502;28;20384;-70
2021/11/17 10:25:43;;;;;;;21.70;7.70;;;;;;;5.34;100.00;101592.41;6322879;28;20055;-70
2021/11/17 10:28:51;;;;;;;20.92;7.35;;;;;;;5.29;100.00;101582.06;6324467;28;20048;-70
2021/11/17 10:31:56;;;;;;;22.88;8.02;;;;;;;5.27;100.00;101577.78;6326005;28;20050;-70
2021/11/17 10:35:01;;;;;;;19.00;6.75;;;;;;;5.30;100.00;101564.69;6324918;28;20499;-70
2021/11/17 10:38:05;;;;;;;18.92;7.45;;;;;;;5.34;100.00;101563.75;6336873;28;20048;-70
2021/11/17 10:41:18;;;;;;;17.38;6.50;;;;;;;5.37;100.00;101568.91;6331938;28;20052;-70
2021/11/17 10:44:34;;;;;;;27.08;9.18;;;;;;;5.41;100.00;101559.31;6324622;28;20509;-70
2021/11/17 10:47:44;;;;;;;24.88;8.43;;;;;;;5.43;100.00;101566.19;6317535;28;20048;-70
2021/11/17 10:50:46;;;;;;;23.65;7.63;;;;;;;5.47;100.00;101553.97;6324282;28;20055;-70
2021/11/17 10:53:49;;;;;;;16.50;6.10;;;;;;;5.52;100.00;101562.53;6332136;28;20407;-70
2021/11/17 10:56:59;;;;;;;27.08;7.78;;;;;;;5.55;100.00;101570.31;6324603;28;20048;-69
2021/11/17 11:00:00;;;;;;;25.35;7.00;;;;;;;5.53;100.00;101569.47;6324116;28;20524;-70
2021/11/17 11:03:04;;;;;;;18.77;7.80;;;;;;;5.53;100.00;101575.53;6324498;28;20060;-70
2021/11/17 11:06:09;;;;;;;19.33;8.27;;;;;;;5.54;100.00;101566.84;6322237;28;20166;-71
2021/11/17 11:09:17;;;;;;;28.15;7.78;;;;;;;5.62;100.00;101565.81;6324399;28;20040;-70
2021/11/17 11:12:20;;;;;;;27.58;6.93;;;;;;;5.58;100.00;101565.88;6323156;28;20040;-70
2021/11/17 11:15:25;;;;;;;20.95;8.43;;;;;;;5.61;100.00;101564.97;6329031;28;20048;-70
2021/11/17 11:18:52;;;;;;;30.63;7.28;;;;;;;5.64;100.00;101556.25;6309687;28;20044;-70
2021/11/17 11:22:13;;;;;;;16.02;6.63;;;;;;;5.65;100.00;101564.03;6334064;28;20057;-70
2021/11/17 11:25:41;;;;;;;20.02;6.65;;;;;;;5.71;100.00;101566.50;6342683;28;20169;-70
2021/11/17 11:28:51;;;;;;;17.92;7.50;;;;;;;5.79;100.00;101567.22;6336668;28;20071;-69
2021/11/17 11:31:53;;;;;;;17.30;7.75;;;;;;;5.79;100.00;101566.34;6323584;28;20052;-69
2021/11/17 11:35:18;;;;;;;23.50;8.45;;;;;;;5.83;100.00;101573.22;6323466;28;20051;-71
2021/11/17 11:38:35;;;;;;;22.60;7.47;;;;;;;5.84;100.00;101569.72;6323410;28;20055;-70
2021/11/17 11:41:40;;;;;;;25.52;9.10;;;;;;;5.89;100.00;101573.09;6323269;28;20048;-69
2021/11/17 11:44:43;;;;;;;24.95;8.52;;;;;;;5.94;100.00;101586.94;6323331;28;20514;-70
2021/11/17 11:47:53;;;;;;;26.33;7.35;;;;;;;5.99;100.00;101585.09;6321756;28;20491;-72
2021/11/17 11:51:00;;;;;;;24.80;10.00;;;;;;;5.99;100.00;101582.47;6323021;28;20055;-71
2021/11/17 11:54:16;;;;;;;20.10;8.52;;;;;;;6.04;100.00;101588.47;6323106;28;20052;-70
2021/11/17 11:57:25;;;;;;;18.17;8.18;;;;;;;6.11;100.00;101594.41;6310083;28;20044;-72
2021/11/17 12:00:32;;;;;;;23.77;8.57;;;;;;;6.14;100.00;101589.16;6330115;28;20055;-72
2021/11/17 12:03:35;;;;;;;24.38;8.75;;;;;;;6.12;100.00;101595.28;6322335;28;20047;-71
2021/11/17 12:06:51;;;;;;;19.70;8.93;;;;;;;6.15;100.00;101590.00;6311977;28;20051;-71
2021/11/17 12:10:04;;;;;;;23.67;8.70;;;;;;;6.17;100.00;101591.66;6311305;28;20044;-71
2021/11/17 12:13:11;;;;;;;19.05;7.70;;;;;;;6.17;100.00;101591.66;6321466;28;20051;-71
2021/11/17 12:16:17;;;;;;;30.75;8.93;;;;;;;6.15;100.00;101595.22;6299026;28;20133;-71
2021/11/17 12:19:31;;;;;;;27.90;9.43;;;;;;;6.16;100.00;101594.31;6297145;28;20048;-71
2021/11/17 12:22:42;;;;;;;18.35;7.80;;;;;;;6.14;100.00;101594.38;6299845;28;20048;-70
2021/11/17 12:25:57;;;;;;;22.52;8.45;;;;;;;6.13;100.00;101608.28;6322330;28;20148;-70
2021/11/17 12:29:01;;;;;;;24.23;9.07;;;;;;;6.21;100.00;101605.50;6322340;28;20040;-70
2021/11/17 12:32:09;;;;;;;24.38;8.90;;;;;;;6.20;100.00;101599.44;6322102;28;20048;-72
2021/11/17 12:35:24;;;;;;;30.95;8.13;;;;;;;6.19;100.00;101597.72;6322150;28;20051;-70
2021/11/17 12:38:28;;;;;;;23.85;7.40;;;;;;;6.23;100.00;101588.94;6313196;28;20055;-70
2021/11/17 12:41:34;;;;;;;23.58;8.85;;;;;;;6.26;100.00;101586.25;6313510;28;20055;-73
2021/11/17 12:44:43;;;;;;;23.05;8.18;;;;;;;6.29;100.00;101572.28;6324053;28;20048;-72
2021/11/17 12:47:50;;;;;;;16.90;7.35;;;;;;;6.29;100.00;101572.28;6313366;28;20060;-69
2021/11/17 12:50:58;;;;;;;20.55;7.75;;;;;;;6.29;100.00;101582.72;6321541;28;20040;-73
2021/11/17 12:54:06;;;;;;;19.25;7.55;;;;;;;6.31;100.00;101573.09;6321571;28;20406;-69
2021/11/17 12:57:12;;;;;;;28.73;7.97;;;;;;;6.30;100.00;101558.34;6321856;28;20129;-72
2021/11/17 13:00:42;;;;;;;18.83;7.25;;;;;;;6.36;100.00;101566.03;6339747;28;20057;-72
2021/11/17 13:03:56;;;;;;;;;;;;;;;6.37;100.00;101572.97;6326963;28;20051;-70
2021/11/17 13:07:00;;;;;;;20.60;7.97;;;;;;;6.40;100.00;101562.44;6321438;28;19927;-72
2021/11/17 13:10:07;;;;;;;18.08;6.50;;;;;;;6.44;100.00;101566.69;6321483;28;20541;-72
2021/11/17 13:13:17;;;;;;;19.38;8.20;;;;;;;6.51;100.00;101564.81;6321184;28;20060;-71
2021/11/17 13:16:22;;;;;;;21.20;7.55;;;;;;;6.57;100.00;101569.91;6331040;28;20053;-71
2021/11/17 13:19:30;;;;;;;18.15;6.60;;;;;;;6.57;100.00;101569.91;6337688;28;20115;-71
2021/11/17 13:22:35;;;;;;;19.50;8.48;;;;;;;6.63;100.00;101563.66;6321155;28;20051;-71
2021/11/17 13:25:50;;;;;;;21.02;8.35;;;;;;;6.65;100.00;101570.56;6321306;28;20067;-71
2021/11/17 13:28:53;;;;;;;19.40;6.57;;;;;;;6.67;100.00;101587.06;6321176;28;20044;-71
2021/11/17 13:32:11;;;;;;;18.98;7.20;;;;;;;6.70;100.00;101593.97;6320941;28;20432;-71
2021/11/17 13:35:31;;;;;;;16.63;7.38;;;;;;;6.71;100.00;101588.69;6319325;28;20044;-71
2021/11/17 13:38:32;;;;;;;23.23;7.18;;;;;;;6.74;100.00;101601.69;6320743;28;20059;-72
2021/11/17 13:41:37;;;;;;;17.25;7.30;;;;;;;6.82;100.00;101615.44;6320759;28;20427;-72
2021/11/17 13:44:39;;;;;;;23.33;8.00;;;;;;;6.80;100.00;101619.84;6320883;28;20047;-72
2021/11/17 13:47:41;;;;;;;18.70;8.43;;;;;;;6.79;100.00;101610.28;6320003;28;20058;-73
2021/11/17 13:50:44;;;;;;;21.75;7.97;;;;;;;6.83;100.00;101611.94;6320248;28;20051;-73
2021/11/17 13:53:45;;;;;;;18.55;7.65;;;;;;;6.84;100.00;101611.03;6321019;28;20469;-71
2021/11/17 13:56:49;;;;;;;14.65;6.68;;;;;;;6.84;100.00;101611.03;6320529;28;20476;-72
2021/11/17 13:59:51;;;;;;;17.65;7.20;;;;;;;6.83;100.00;101611.94;6320953;28;20100;-72
2021/11/17 14:02:54;;;;;;;21.75;7.43;;;;;;;6.88;100.00;101617.03;6320825;28;20051;-73
2021/11/17 14:05:59;;;;;;;21.33;8.10;;;;;;;6.89;100.00;101615.28;6320586;28;20040;-73
2021/11/17 14:09:00;;;;;;;29.20;7.35;;;;;;;6.96;100.00;101617.72;6320814;28;20052;-73
2021/11/17 14:12:06;;;;;;;20.35;6.90;;;;;;;6.97;100.00;101621.19;6320297;28;20146;-73
2021/11/17 14:15:08;;;;;;;23.05;7.50;;;;;;;6.96;100.00;101619.47;6319579;28;20044;-72
2021/11/17 14:18:12;;;;;;;17.75;7.40;;;;;;;6.98;100.00;101618.53;6320468;28;20052;-73
2021/11/17 14:21:14;;;;;;;18.95;8.10;;;;;;;7.02;100.00;101619.31;6319325;28;20048;-72
2021/11/17 14:24:16;;;;;;;17.10;6.30;;;;;;;7.03;100.00;101616.66;6323172;28;20040;-74
2021/11/17 14:27:19;;;;;;;25.20;6.90;;;;;;;7.03;100.00;101623.66;6325158;28;20051;-73
2021/11/17 14:30:23;;;;;;;18.33;6.97;;;;;;;7.04;100.00;101625.34;6316469;28;20051;-74
2021/11/17 14:33:31;;;;;;;16.83;7.28;;;;;;;7.05;100.00;101617.50;6324856;28;20399;-74
2021/11/17 14:36:35;;;;;;;18.98;6.47;;;;;;;7.05;100.00;101625.34;6324915;28;20071;-74
2021/11/17 14:39:39;;;;;;;15.60;6.10;;;;;;;7.11;100.00;101629.56;6325014;28;20044;-73
2021/11/17 14:42:42;;;;;;;19.10;5.53;;;;;;;7.11;100.00;101625.19;6324728;28;20051;-74
2021/11/17 14:45:45;;;;;;;13.38;5.75;;;;;;;7.14;100.00;101647.78;6324252;28;20044;-73
2021/11/17 14:48:46;;;;;;;11.52;4.68;;;;;;;7.14;100.00;101647.78;6323517;28;20055;-74
2021/11/17 14:51:48;;;;;;;13.98;5.75;;;;;;;7.12;100.00;101647.78;6324416;28;20048;-73
2021/11/17 14:54:50;;;;;;;15.25;5.53;;;;;;;7.14;100.00;101645.16;6324396;28;20502;-73
2021/11/17 14:57:54;;;;;;;17.35;5.68;;;;;;;7.14;100.00;101639.09;6324220;28;20428;-73
2021/11/17 15:00:58;;;;;;;16.63;5.55;;;;;;;7.10;100.00;101643.53;6324393;28;20696;-73
2021/11/17 15:04:02;;;;;;;17.60;5.90;;;;;;;7.15;100.00;101638.19;6324325;28;20494;-73
2021/11/17 15:07:05;;;;;;;10.38;4.60;;;;;;;7.16;100.00;101652.97;6324246;28;20052;-73
2021/11/17 15:10:09;;;;;;;20.27;5.80;;;;;;;7.08;100.00;101654.00;6324030;28;20048;-72
2021/11/17 15:13:12;;;;;;;17.58;5.70;;;;;;;7.10;100.00;101657.44;6324044;28;20056;-73
2021/11/17 15:16:14;;;;;;;14.52;4.72;;;;;;;7.12;100.00;101657.41;6323651;28;20048;-73
2021/11/17 15:19:16;;;;;;;15.00;5.93;;;;;;;7.09;100.00;101649.66;6323835;28;20044;-73
2021/11/17 15:22:19;;;;;;;10.43;5.00;;;;;;;7.13;100.00;101646.06;6323872;28;20044;-73
2021/11/17 15:25:23;;;;;;;13.30;5.97;;;;;;;7.10;100.00;101653.97;6323690;28;20048;-74
2021/11/17 15:28:28;;;;;;;13.20;5.22;;;;;;;7.10;100.00;101646.13;6334543;28;20406;-74
2021/11/17 15:31:31;;;;;;;17.90;5.13;;;;;;;7.12;100.00;101655.63;6327577;28;20040;-73
2021/11/17 15:34:33;;;;;;;13.77;5.60;;;;;;;7.09;100.00;101654.88;6327214;28;20050;-73
2021/11/17 15:37:35;;;;;;;19.08;6.43;;;;;;;7.12;100.00;101662.63;6319388;28;20044;-73
2021/11/17 15:40:41;;;;;;;10.90;5.35;;;;;;;7.10;100.00;101662.66;6314592;28;20076;-73
2021/11/17 15:43:48;;;;;;;9.40;4.22;;;;;;;7.08;100.00;101667.06;6322727;28;20051;-72
2021/11/17 15:46:57;;;;;;;12.52;5.13;;;;;;;7.04;100.00;101677.63;6322795;28;20047;-72
2021/11/17 15:49:59;;;;;;;12.20;4.22;;;;;;;7.08;100.00;101668.81;6314681;28;20518;-73
2021/11/17 15:53:00;;;;;;;22.05;5.85;;;;;;;7.03;100.00;101674.16;6323457;28;20096;-72
2021/11/17 15:56:02;;;;;;;17.33;5.10;;;;;;;6.97;100.00;101670.84;6322891;28;20052;-72
2021/11/17 15:59:04;;;;;;;16.27;5.65;;;;;;;7.04;100.00;101670.66;6322850;28;20445;-72
2021/11/17 16:02:06;;;;;;;19.80;5.45;;;;;;;6.96;100.00;101684.81;6322357;28;20048;-71
2021/11/17 16:05:08;;;;;;;28.05;6.30;;;;;;;6.89;100.00;101686.69;6323009;28;20036;-72
2021/11/17 16:08:10;;;;;;;14.27;6.05;;;;;;;6.81;100.00;101689.50;6322671;28;20047;-71
2021/11/17 16:11:12;;;;;;;17.55;5.97;;;;;;;6.84;100.00;101697.25;6322824;28;20048;-72
2021/11/17 16:14:15;;;;;;;16.83;5.40;;;;;;;6.73;100.00;101696.63;6322746;28;20052;-72
2021/11/17 16:17:17;;;;;;;15.07;4.95;;;;;;;6.71;100.00;101698.41;6322608;28;20048;-72
2021/11/17 16:20:21;;;;;;;10.15;5.30;;;;;;;6.70;100.00;101694.09;6322456;28;20048;-72
2021/11/17 16:26:44;;;;;;;12.20;4.90;;;;;;;6.72;100.00;101702.75;6322395;28;20051;-72
2021/11/17 16:29:49;;;;;;;13.93;5.45;;;;;;;6.79;100.00;101706.94;6322207;28;20052;-72
2021/11/17 16:32:52;;;;;;;16.02;6.10;;;;;;;6.85;100.00;101725.09;6322556;28;20048;-72
2021/11/17 16:35:54;;;;;;;16.13;4.90;;;;;;;6.89;100.00;101715.44;6322036;28;20051;-72
2021/11/17 16:38:55;;;;;;;17.15;5.55;;;;;;;6.93;100.00;101724.91;6322250;28;20047;-71
2021/11/17 16:41:56;;;;;;;16.10;5.53;;;;;;;6.84;100.00;101723.38;6322325;28;20052;-72
2021/11/17 16:44:59;;;;;;;11.35;5.07;;;;;;;6.82;100.00;101729.53;6321553;28;20051;-72
2021/11/17 16:48:01;;;;;;;9.98;4.90;;;;;;;6.81;100.00;101733.03;6306646;28;20055;-72
2021/11/17 16:51:03;;;;;;;19.85;5.20;;;;;;;6.75;100.00;101748.84;6321715;28;20418;-72
2021/11/17 16:54:05;;;;;;;12.60;5.78;;;;;;;6.73;100.00;101748.88;6321413;28;20052;-72
2021/11/17 16:57:07;;;;;;;11.70;4.53;;;;;;;6.73;100.00;101756.72;6321817;28;20457;-72
2021/11/17 17:00:14;;;;;;;14.88;5.70;;;;;;;6.76;100.00;101759.25;6321388;28;20043;-72
2021/11/17 17:03:19;;;;;;;18.88;6.80;;;;;;;6.63;100.00;101764.75;6321989;28;20051;-72